Time;durP1;ratioP1;P1;durP2;ratioP2;P2;SDS_P1;SDS_P2;PMS_P1;PMS_P2;Temp;Humidity;BMP_temperature;BMP_pressure;BME280_temperature;BME280_humidity;BME280_pressure;Samples;Min_cycle;Max_cycle;Signal;HPM_P1;HPM_P2
2023/11/19 00:00:12;;;;;;;2.30;1.70;;;10.90;99.90;;;;;;5115872;28;20454;-85
2023/11/19 00:02:40;;;;;;;3.50;1.60;;;11.00;99.90;;;;;;5112257;28;20449;-85
2023/11/19 00:05:11;;;;;;;2.30;1.40;;;11.00;99.90;;;;;;5113000;28;20455;-85
2023/11/19 00:07:42;;;;;;;1.73;1.63;;;11.00;99.90;;;;;;5107164;28;20451;-85
2023/11/19 00:10:10;;;;;;;2.33;1.70;;;11.00;99.90;;;;;;5112113;28;20461;-85
2023/11/19 00:12:39;;;;;;;3.97;2.27;;;11.10;99.90;;;;;;5107835;28;20485;-86
2023/11/19 00:15:11;;;;;;;1.90;1.60;;;11.10;99.90;;;;;;5103300;28;20458;-85
2023/11/19 00:17:38;;;;;;;2.90;1.87;;;11.10;99.90;;;;;;5101975;28;20459;-84
2023/11/19 00:20:09;;;;;;;2.40;2.10;;;11.10;99.90;;;;;;5111864;28;20444;-83
2023/11/19 00:22:36;;;;;;;4.00;1.90;;;11.20;99.90;;;;;;5110517;28;20906;-84
2023/11/19 00:25:03;;;;;;;3.20;2.37;;;11.20;99.90;;;;;;5108593;28;20446;-83
2023/11/19 00:27:30;;;;;;;2.80;2.60;;;11.30;99.90;;;;;;5107660;28;21011;-83
2023/11/19 00:29:58;;;;;;;3.10;2.80;;;11.30;99.90;;;;;;5099191;28;20454;-82
2023/11/19 00:32:25;;;;;;;3.43;3.13;;;11.40;99.90;;;;;;5100174;28;20568;-84
2023/11/19 00:34:52;;;;;;;3.30;3.00;;;11.40;99.90;;;;;;5110777;28;20444;-84
2023/11/19 00:37:20;;;;;;;3.57;3.07;;;11.40;99.90;;;;;;5118348;28;20537;-84
2023/11/19 00:39:47;;;;;;;4.20;3.77;;;11.50;99.90;;;;;;5119309;28;20456;-85
2023/11/19 00:42:14;;;;;;;4.43;3.30;;;11.50;99.90;;;;;;5111593;28;20450;-83
2023/11/19 00:44:41;;;;;;;4.10;3.70;;;11.50;99.90;;;;;;5102649;28;20470;-83
2023/11/19 00:47:08;;;;;;;5.40;3.80;;;11.60;99.90;;;;;;5104063;28;20553;-83
2023/11/19 00:49:35;;;;;;;5.00;4.23;;;11.60;99.90;;;;;;5105949;28;20453;-84
2023/11/19 00:52:02;;;;;;;5.17;3.90;;;11.70;99.90;;;;;;5108296;28;20481;-82
2023/11/19 00:54:31;;;;;;;4.80;3.50;;;11.70;99.90;;;;;;5102687;28;20457;-83
2023/11/19 00:56:57;;;;;;;5.00;4.00;;;11.70;99.90;;;;;;5105058;28;20470;-83
2023/11/19 00:59:24;;;;;;;5.13;4.67;;;11.70;99.90;;;;;;5093043;28;20445;-83
2023/11/19 01:01:51;;;;;;;4.00;3.60;;;11.70;99.90;;;;;;5095332;28;20450;-83
2023/11/19 01:04:19;;;;;;;5.40;3.70;;;11.80;99.90;;;;;;5110630;28;20449;-84
2023/11/19 01:06:45;;;;;;;7.77;4.60;;;11.80;99.90;;;;;;5101838;28;20480;-84
2023/11/19 01:09:12;;;;;;;4.63;4.23;;;11.80;99.90;;;;;;5097033;28;20446;-83
2023/11/19 01:11:41;;;;;;;5.00;4.50;;;11.80;99.90;;;;;;5095405;28;20571;-84
2023/11/19 01:14:07;;;;;;;5.50;4.20;;;11.90;99.90;;;;;;5094230;28;20492;-84
2023/11/19 01:16:34;;;;;;;4.57;4.17;;;11.90;99.90;;;;;;5104067;28;20469;-84
2023/11/19 01:19:04;;;;;;;3.87;3.47;;;11.90;99.90;;;;;;5093831;28;20526;-84
2023/11/19 01:21:31;;;;;;;5.03;4.33;;;12.00;99.90;;;;;;5106875;28;20455;-84
2023/11/19 01:23:58;;;;;;;5.63;4.33;;;12.00;99.90;;;;;;5102752;28;20481;-81
2023/11/19 01:26:25;;;;;;;4.40;4.00;;;12.00;99.90;;;;;;5090006;28;20473;-82
2023/11/19 01:28:53;;;;;;;4.07;3.63;;;12.00;99.90;;;;;;5098853;28;20452;-82
2023/11/19 01:31:20;;;;;;;4.43;3.93;;;12.00;99.90;;;;;;5102844;28;20465;-82
2023/11/19 01:33:47;;;;;;;3.40;3.10;;;12.10;99.90;;;;;;5098694;28;20453;-83
2023/11/19 01:36:14;;;;;;;3.00;2.43;;;12.00;99.90;;;;;;5099954;28;20471;-81
2023/11/19 01:38:41;;;;;;;4.33;3.80;;;12.10;99.90;;;;;;5101824;28;20805;-82
2023/11/19 01:41:08;;;;;;;2.90;2.60;;;12.20;99.90;;;;;;5098405;28;20439;-81
2023/11/19 01:43:36;;;;;;;3.30;2.70;;;12.20;99.90;;;;;;5110379;28;20450;-82
2023/11/19 01:46:06;;;;;;;3.03;2.73;;;12.20;99.90;;;;;;5104920;28;20462;-80
2023/11/19 01:48:35;;;;;;;2.70;2.20;;;12.20;99.90;;;;;;5105897;28;20451;-81
2023/11/19 01:51:03;;;;;;;3.20;2.60;;;12.20;99.90;;;;;;5106835;28;20825;-82
2023/11/19 01:53:31;;;;;;;4.10;2.70;;;12.20;99.90;;;;;;5103125;28;20492;-81
2023/11/19 01:55:58;;;;;;;3.00;2.27;;;12.20;99.90;;;;;;5105133;28;21064;-82
2023/11/19 01:58:26;;;;;;;3.10;2.70;;;12.20;99.90;;;;;;5104371;28;20448;-82
2023/11/19 02:00:52;;;;;;;3.63;2.93;;;12.20;99.90;;;;;;5106274;28;20500;-82
2023/11/19 02:03:22;;;;;;;2.70;2.20;;;12.20;99.90;;;;;;5105232;28;20898;-82
2023/11/19 02:05:50;;;;;;;2.63;2.10;;;12.30;99.90;;;;;;5108908;28;20480;-81
2023/11/19 02:08:17;;;;;;;2.90;2.50;;;12.30;99.90;;;;;;5107646;28;20842;-82
2023/11/19 02:10:44;;;;;;;2.80;2.50;;;12.30;99.90;;;;;;5105795;28;20460;-81
2023/11/19 02:13:13;;;;;;;3.57;2.30;;;12.30;99.90;;;;;;5106885;28;20522;-82
2023/11/19 02:15:40;;;;;;;2.80;2.60;;;12.20;99.90;;;;;;5104971;28;20511;-82
2023/11/19 02:18:22;;;;;;;4.80;2.70;;;12.30;99.90;;;;;;5107395;28;20456;-82
2023/11/19 02:20:49;;;;;;;3.13;2.83;;;12.30;99.90;;;;;;5109107;28;20493;-82
2023/11/19 02:23:16;;;;;;;6.10;2.20;;;12.30;99.90;;;;;;5110060;28;20532;-82
2023/11/19 02:25:49;;;;;;;7.67;3.10;;;12.30;99.90;;;;;;5110319;28;20497;-83
2023/11/19 02:28:18;;;;;;;5.10;2.60;;;12.40;99.90;;;;;;5105411;28;20455;-83
2023/11/19 02:30:45;;;;;;;3.30;2.73;;;12.30;99.90;;;;;;5099572;28;20569;-83
2023/11/19 02:33:12;;;;;;;3.20;2.90;;;12.40;99.90;;;;;;5102879;28;20572;-83
2023/11/19 02:35:40;;;;;;;6.10;2.60;;;12.30;99.90;;;;;;5108764;28;21016;-82
2023/11/19 02:38:08;;;;;;;6.73;3.47;;;12.40;99.90;;;;;;5106711;28;20461;-82
2023/11/19 02:40:35;;;;;;;4.60;2.30;;;12.40;99.90;;;;;;5107190;28;20459;-82
2023/11/19 02:43:04;;;;;;;4.63;2.57;;;12.40;99.90;;;;;;5104927;28;20486;-83
2023/11/19 02:45:32;;;;;;;6.30;2.60;;;12.40;99.90;;;;;;5104205;28;20522;-83
2023/11/19 02:48:01;;;;;;;4.57;2.47;;;12.40;99.90;;;;;;5099074;28;20529;-83
2023/11/19 02:50:28;;;;;;;14.80;3.30;;;12.40;99.90;;;;;;5104680;28;21223;-83
2023/11/19 02:52:56;;;;;;;3.53;2.40;;;12.40;99.90;;;;;;5113419;28;20572;-83
2023/11/19 02:55:24;;;;;;;7.40;2.83;;;12.40;99.90;;;;;;5112806;28;20451;-83
2023/11/19 02:57:52;;;;;;;5.73;2.80;;;12.40;99.90;;;;;;5095648;28;20465;-83
2023/11/19 03:00:23;;;;;;;3.53;1.87;;;12.50;99.90;;;;;;5120075;28;20530;-83
2023/11/19 03:02:58;;;;;;;9.83;3.10;;;12.50;99.90;;;;;;5114843;28;20485;-82
2023/11/19 03:05:29;;;;;;;5.83;2.43;;;12.50;99.90;;;;;;5120827;28;20986;-83
2023/11/19 03:07:56;;;;;;;4.23;2.53;;;12.50;99.90;;;;;;5119576;28;20482;-81
2023/11/19 03:10:24;;;;;;;8.20;2.70;;;12.60;99.90;;;;;;5110386;28;20491;-82
2023/11/19 03:12:51;;;;;;;6.33;3.17;;;12.60;99.90;;;;;;5107228;28;20927;-83
2023/11/19 03:15:18;;;;;;;7.80;2.70;;;12.60;99.90;;;;;;5114907;28;20535;-82
2023/11/19 03:17:46;;;;;;;7.80;3.70;;;12.60;99.90;;;;;;5109530;28;20449;-82
2023/11/19 03:20:16;;;;;;;5.90;2.50;;;12.50;99.90;;;;;;5119056;28;20456;-82
2023/11/19 03:22:43;;;;;;;12.10;3.73;;;12.60;99.90;;;;;;5112914;28;20479;-84
2023/11/19 03:25:10;;;;;;;8.43;3.23;;;12.60;99.90;;;;;;5113173;28;20449;-83
2023/11/19 03:27:38;;;;;;;7.13;3.90;;;12.50;99.90;;;;;;5107304;28;20461;-82
2023/11/19 03:30:06;;;;;;;7.70;3.30;;;12.60;99.90;;;;;;5113259;28;20524;-82
2023/11/19 03:32:35;;;;;;;13.50;3.70;;;12.60;99.90;;;;;;5120535;28;20591;-81
2023/11/19 03:35:03;;;;;;;4.07;3.67;;;12.60;99.90;;;;;;5114813;28;20514;-83
2023/11/19 03:37:32;;;;;;;9.43;3.47;;;12.60;99.90;;;;;;5120878;28;20562;-82
2023/11/19 03:40:00;;;;;;;7.10;3.33;;;12.60;99.90;;;;;;5118260;28;20454;-83
2023/11/19 03:42:27;;;;;;;5.43;2.93;;;12.70;99.90;;;;;;5115077;28;20452;-82
2023/11/19 03:44:54;;;;;;;8.33;3.53;;;12.60;99.90;;;;;;5119976;28;20997;-81
2023/11/19 03:47:21;;;;;;;15.83;5.03;;;12.60;99.90;;;;;;5122003;28;20520;-82
2023/11/19 03:49:49;;;;;;;7.70;3.33;;;12.60;99.90;;;;;;5125375;28;20459;-82
2023/11/19 03:52:16;;;;;;;10.07;3.40;;;12.50;99.90;;;;;;5127025;28;20478;-83
2023/11/19 03:54:45;;;;;;;13.87;4.40;;;12.40;99.90;;;;;;5122897;28;20544;-82
2023/11/19 03:57:12;;;;;;;11.50;3.73;;;12.30;99.90;;;;;;5125196;28;20477;-82
2023/11/19 03:59:39;;;;;;;12.93;3.53;;;12.30;99.90;;;;;;5123737;28;20527;-81
2023/11/19 04:02:06;;;;;;;13.93;4.00;;;12.20;99.90;;;;;;5115775;28;20480;-81
2023/11/19 04:04:33;;;;;;;10.27;3.87;;;12.10;99.90;;;;;;5122979;28;20476;-81
2023/11/19 04:07:00;;;;;;;12.70;3.57;;;12.10;99.90;;;;;;5120521;28;20517;-81
2023/11/19 04:09:27;;;;;;;12.23;3.90;;;12.00;99.90;;;;;;5119124;28;20540;-81
2023/11/19 04:11:55;;;;;;;12.80;3.00;;;12.00;99.90;;;;;;5112384;28;20454;-81
2023/11/19 04:14:22;;;;;;;10.87;3.67;;;11.90;99.90;;;;;;5112870;28;20450;-85
2023/11/19 04:16:49;;;;;;;16.17;4.00;;;11.90;99.90;;;;;;5115107;28;20954;-81
2023/11/19 04:19:16;;;;;;;16.70;4.40;;;11.90;99.90;;;;;;5123357;28;20451;-82
2023/11/19 04:21:43;;;;;;;16.53;3.93;;;11.80;99.90;;;;;;5114809;28;20485;-82
2023/11/19 04:24:12;;;;;;;14.53;3.20;;;11.70;99.90;;;;;;5103357;28;20449;-82
2023/11/19 04:26:41;;;;;;;16.80;3.77;;;11.70;99.90;;;;;;5106350;28;20845;-82
2023/11/19 04:29:11;;;;;;;17.07;4.03;;;11.70;99.90;;;;;;5103300;28;20465;-82
2023/11/19 04:31:37;;;;;;;12.87;3.70;;;11.70;99.90;;;;;;5107151;28;20454;-83
2023/11/19 04:34:04;;;;;;;13.00;4.93;;;11.70;99.90;;;;;;5109440;28;20525;-82
2023/11/19 04:36:31;;;;;;;12.40;3.80;;;11.70;99.90;;;;;;5125538;28;20491;-82
2023/11/19 04:38:59;;;;;;;18.07;4.27;;;11.60;99.90;;;;;;5127424;28;20543;-82
2023/11/19 04:41:27;;;;;;;12.10;4.33;;;11.60;99.90;;;;;;5117690;28;20470;-81
2023/11/19 04:43:54;;;;;;;11.23;4.03;;;11.60;99.90;;;;;;5124469;28;20937;-82
2023/11/19 04:46:23;;;;;;;13.23;4.30;;;11.60;99.90;;;;;;5123689;28;20480;-82
2023/11/19 04:48:50;;;;;;;16.77;4.73;;;11.60;99.90;;;;;;5124848;28;20503;-82
2023/11/19 04:51:17;;;;;;;20.33;4.20;;;11.50;99.90;;;;;;5118821;28;20545;-83
2023/11/19 04:53:44;;;;;;;14.37;4.43;;;11.50;99.90;;;;;;5124830;28;20492;-82
2023/11/19 04:56:11;;;;;;;12.43;3.50;;;11.60;99.90;;;;;;5115206;28;20484;-82
2023/11/19 04:58:38;;;;;;;14.90;4.60;;;11.60;99.90;;;;;;5123056;28;20474;-83
2023/11/19 05:01:05;;;;;;;17.57;3.70;;;11.50;99.90;;;;;;5110051;28;20454;-82
2023/11/19 05:03:34;;;;;;;16.10;3.77;;;11.50;99.90;;;;;;5123250;28;20449;-82
2023/11/19 05:06:01;;;;;;;14.53;3.80;;;11.60;99.90;;;;;;5124496;28;20551;-82
2023/11/19 05:08:28;;;;;;;10.00;4.00;;;11.60;99.90;;;;;;5115986;28;20477;-81
2023/11/19 05:10:54;;;;;;;15.47;4.27;;;11.60;99.90;;;;;;5121398;28;20454;-83
2023/11/19 05:13:22;;;;;;;15.63;4.60;;;11.60;99.90;;;;;;5121184;28;20499;-82
2023/11/19 05:15:48;;;;;;;16.60;4.50;;;11.70;99.90;;;;;;5108436;28;20481;-82
2023/11/19 05:18:15;;;;;;;22.70;5.63;;;11.70;99.90;;;;;;5124204;28;20537;-81
2023/11/19 05:20:43;;;;;;;18.97;4.53;;;11.70;99.90;;;;;;5113808;28;20437;-81
2023/11/19 05:23:10;;;;;;;16.60;4.37;;;11.80;99.90;;;;;;5111376;28;20540;-81
2023/11/19 05:25:38;;;;;;;18.67;4.30;;;11.80;99.90;;;;;;5122544;28;20552;-82
2023/11/19 05:28:04;;;;;;;13.97;3.77;;;11.80;99.90;;;;;;5119075;28;20458;-82
2023/11/19 05:30:31;;;;;;;16.70;3.90;;;11.80;99.90;;;;;;5114425;28;20556;-81
2023/11/19 05:32:58;;;;;;;22.03;5.40;;;11.80;99.90;;;;;;5115000;28;20927;-82
2023/11/19 05:35:25;;;;;;;14.63;4.37;;;11.80;99.90;;;;;;5121925;28;20522;-82
2023/11/19 05:37:53;;;;;;;16.90;4.10;;;11.80;99.90;;;;;;5108992;28;20551;-82
2023/11/19 05:40:20;;;;;;;15.97;3.90;;;11.80;99.90;;;;;;5107128;28;20536;-81
2023/11/19 05:42:47;;;;;;;24.63;4.53;;;11.80;99.90;;;;;;5100346;28;20471;-82
2023/11/19 05:45:14;;;;;;;22.33;4.20;;;11.80;99.90;;;;;;5116257;28;20995;-81
2023/11/19 05:47:44;;;;;;;14.60;3.50;;;11.80;99.90;;;;;;5121170;28;20529;-82
2023/11/19 05:50:11;;;;;;;14.03;4.10;;;11.80;99.90;;;;;;5118687;28;20446;-81
2023/11/19 05:52:38;;;;;;;19.33;5.23;;;11.90;99.90;;;;;;5121217;28;20948;-82
2023/11/19 05:55:10;;;;;;;15.87;4.10;;;11.90;99.90;;;;;;5119876;28;20461;-82
2023/11/19 05:57:37;;;;;;;25.50;5.00;;;11.90;99.90;;;;;;5122376;28;20457;-83
2023/11/19 06:00:07;;;;;;;23.13;4.70;;;12.00;99.90;;;;;;5117103;28;20471;-81
2023/11/19 06:02:37;;;;;;;15.80;5.97;;;12.00;99.90;;;;;;5121540;28;20481;-81
2023/11/19 06:05:06;;;;;;;17.13;4.87;;;12.00;99.90;;;;;;5120157;28;20450;-81
2023/11/19 06:07:33;;;;;;;18.00;3.80;;;12.00;99.90;;;;;;5114102;28;20484;-82
2023/11/19 06:10:00;;;;;;;13.07;3.40;;;12.00;99.90;;;;;;5117432;28;20470;-82
2023/11/19 06:12:28;;;;;;;19.87;5.37;;;11.90;99.90;;;;;;5121448;28;20446;-83
2023/11/19 06:14:57;;;;;;;15.37;3.90;;;11.90;99.90;;;;;;5115463;28;20537;-82
2023/11/19 06:17:24;;;;;;;8.87;3.67;;;11.90;99.90;;;;;;5123859;28;20478;-83
2023/11/19 06:19:52;;;;;;;12.63;3.57;;;11.90;99.90;;;;;;5111232;28;20532;-83
2023/11/19 06:22:18;;;;;;;20.37;4.60;;;11.80;99.90;;;;;;5121765;28;20461;-83
2023/11/19 06:24:45;;;;;;;12.73;3.87;;;11.70;99.90;;;;;;5127378;28;20539;-83
2023/11/19 06:27:12;;;;;;;23.13;4.50;;;11.70;99.90;;;;;;5128894;28;20570;-82
2023/11/19 06:29:41;;;;;;;12.87;4.13;;;11.70;99.90;;;;;;5124911;28;20466;-83
2023/11/19 06:32:08;;;;;;;19.73;3.80;;;11.70;99.90;;;;;;5130245;28;20454;-84
2023/11/19 06:34:35;;;;;;;27.03;4.90;;;11.70;99.90;;;;;;5117042;28;20486;-83
2023/11/19 06:37:03;;;;;;;14.50;4.17;;;11.70;99.90;;;;;;5127949;28;20477;-83
2023/11/19 06:39:29;;;;;;;16.23;3.53;;;11.70;99.90;;;;;;5127947;28;20477;-82
2023/11/19 06:41:56;;;;;;;17.47;5.13;;;11.80;99.90;;;;;;5134396;28;20475;-82
2023/11/19 06:44:24;;;;;;;10.53;4.03;;;11.80;99.90;;;;;;5116992;28;20445;-82
2023/11/19 06:46:53;;;;;;;19.23;4.13;;;11.80;99.90;;;;;;5088679;28;20869;-82
2023/11/19 06:49:20;;;;;;;18.13;4.30;;;11.80;99.90;;;;;;5100673;28;20520;-82
2023/11/19 06:51:47;;;;;;;17.30;4.37;;;11.70;99.90;;;;;;5120873;28;20477;-81
2023/11/19 06:54:13;;;;;;;16.80;3.30;;;11.70;99.90;;;;;;5123810;28;20568;-79
2023/11/19 06:56:41;;;;;;;17.10;4.00;;;11.80;99.90;;;;;;5129252;28;20481;-80
2023/11/19 06:59:08;;;;;;;15.27;3.77;;;11.80;99.90;;;;;;5126143;28;20476;-79
2023/11/19 07:01:36;;;;;;;16.23;3.37;;;11.80;99.90;;;;;;5109875;28;20484;-82
2023/11/19 07:04:09;;;;;;;20.67;5.37;;;11.80;99.90;;;;;;5125365;28;20450;-80
2023/11/19 07:06:35;;;;;;;14.30;3.40;;;11.80;99.90;;;;;;5111701;28;20493;-80
2023/11/19 07:09:09;;;;;;;18.50;4.77;;;11.80;99.90;;;;;;5117816;28;20904;-80
2023/11/19 07:11:36;;;;;;;21.53;4.20;;;11.80;99.90;;;;;;5128959;28;20465;-80
2023/11/19 07:14:04;;;;;;;17.60;3.97;;;11.80;99.90;;;;;;5118872;28;20492;-78
2023/11/19 07:16:30;;;;;;;18.27;3.50;;;11.80;99.90;;;;;;5120622;28;20542;-81
2023/11/19 07:18:59;;;;;;;31.07;10.07;;;11.80;99.90;;;;;;5117522;28;20466;-79
2023/11/19 07:21:28;;;;;;;27.80;13.10;;;11.80;99.90;;;;;;5120679;28;20467;-79
2023/11/19 07:23:55;;;;;;;20.03;4.30;;;11.80;99.90;;;;;;5108740;28;20458;-79
2023/11/19 07:26:22;;;;;;;17.03;3.93;;;11.80;99.90;;;;;;5116976;28;20556;-79
2023/11/19 07:28:49;;;;;;;12.73;3.73;;;11.70;99.90;;;;;;5110169;28;20450;-78
2023/11/19 07:31:16;;;;;;;18.80;3.80;;;11.60;99.90;;;;;;5111210;28;20455;-77
2023/11/19 07:33:43;;;;;;;16.07;3.73;;;11.60;99.90;;;;;;5108552;28;20467;-77
2023/11/19 07:36:10;;;;;;;17.17;5.23;;;11.60;99.90;;;;;;5101693;28;20517;-77
2023/11/19 07:38:39;;;;;;;17.50;4.73;;;11.60;99.90;;;;;;5110070;28;20519;-80
2023/11/19 07:41:06;;;;;;;12.20;4.37;;;11.70;99.90;;;;;;5114060;28;20528;-79
2023/11/19 07:43:33;;;;;;;16.40;3.90;;;11.70;99.90;;;;;;5116093;28;20523;-79
2023/11/19 07:46:00;;;;;;;20.73;3.40;;;11.70;99.90;;;;;;5090299;28;20559;-77
2023/11/19 07:48:27;;;;;;;11.97;3.70;;;11.80;99.90;;;;;;5086375;28;20493;-78
2023/11/19 07:50:54;;;;;;;14.50;3.57;;;11.70;99.90;;;;;;5112489;28;20500;-78
2023/11/19 07:53:21;;;;;;;14.73;3.77;;;11.80;99.90;;;;;;5113900;28;20458;-79
2023/11/19 07:55:49;;;;;;;14.57;3.07;;;11.80;99.90;;;;;;5109121;28;20473;-78
2023/11/19 07:58:16;;;;;;;21.50;4.50;;;11.80;99.90;;;;;;5106907;28;20488;-79
2023/11/19 08:00:43;;;;;;;21.87;3.90;;;11.80;99.90;;;;;;5095112;28;20458;-77
2023/11/19 08:03:10;;;;;;;12.70;2.87;;;11.80;99.90;;;;;;5097292;28;20450;-79
2023/11/19 08:05:37;;;;;;;16.50;3.50;;;11.80;99.90;;;;;;5101898;28;20496;-79
2023/11/19 08:08:04;;;;;;;26.07;4.70;;;11.80;99.90;;;;;;5102549;28;20947;-78
2023/11/19 08:10:33;;;;;;;15.57;4.23;;;11.80;99.90;;;;;;5095926;28;20552;-79
2023/11/19 08:13:01;;;;;;;16.23;4.00;;;11.80;99.90;;;;;;5102615;28;20503;-78
2023/11/19 08:15:28;;;;;;;15.47;3.00;;;11.90;99.90;;;;;;5100700;28;20581;-79
2023/11/19 08:17:54;;;;;;;12.20;3.27;;;11.90;99.90;;;;;;5085984;28;20462;-81
2023/11/19 08:20:21;;;;;;;12.57;3.47;;;12.00;99.90;;;;;;5089938;28;20863;-80
2023/11/19 08:22:48;;;;;;;19.67;4.67;;;12.10;99.90;;;;;;5096896;28;20520;-81
2023/11/19 08:25:15;;;;;;;13.10;3.80;;;12.10;99.90;;;;;;5095464;28;20568;-82
2023/11/19 08:27:43;;;;;;;18.60;3.53;;;12.10;99.90;;;;;;5099631;28;20478;-79
2023/11/19 08:30:15;;;;;;;14.70;4.00;;;12.10;99.90;;;;;;5098334;28;20450;-81
2023/11/19 08:32:44;;;;;;;20.60;3.60;;;12.10;99.90;;;;;;5087871;28;20456;-78
2023/11/19 08:35:12;;;;;;;20.53;3.30;;;12.20;99.90;;;;;;5107741;28;20496;-81
2023/11/19 08:37:39;;;;;;;17.00;3.80;;;12.30;99.90;;;;;;5101589;28;20464;-79
2023/11/19 08:40:07;;;;;;;19.53;4.50;;;12.40;99.90;;;;;;5113119;28;20459;-80
2023/11/19 08:42:34;;;;;;;15.83;3.67;;;12.40;99.90;;;;;;5091515;28;20458;-79
2023/11/19 08:45:00;;;;;;;16.83;3.80;;;12.50;99.90;;;;;;5117127;28;20457;-79
2023/11/19 08:47:28;;;;;;;19.57;4.97;;;12.60;99.90;;;;;;5089743;28;20470;-79
2023/11/19 08:49:55;;;;;;;18.90;4.27;;;12.70;99.90;;;;;;5109020;28;20478;-78
2023/11/19 08:52:22;;;;;;;23.63;5.63;;;12.70;99.90;;;;;;5116821;28;20510;-79
2023/11/19 08:54:49;;;;;;;15.03;3.40;;;12.70;99.90;;;;;;5116189;28;21055;-78
2023/11/19 08:57:16;;;;;;;20.83;5.10;;;12.70;99.90;;;;;;5114679;28;20857;-80
2023/11/19 08:59:45;;;;;;;23.97;3.83;;;12.60;99.90;;;;;;5100450;28;20466;-79
2023/11/19 09:02:12;;;;;;;16.50;4.37;;;12.60;99.90;;;;;;5100020;28;20456;-81
2023/11/19 09:04:40;;;;;;;15.73;3.90;;;12.50;99.90;;;;;;5111092;28;20534;-80
2023/11/19 09:07:09;;;;;;;22.27;4.03;;;12.60;99.90;;;;;;5111911;28;20539;-81
2023/11/19 09:09:36;;;;;;;25.10;4.40;;;12.70;99.90;;;;;;5090731;28;20459;-82
2023/11/19 09:12:03;;;;;;;18.30;4.33;;;12.80;99.90;;;;;;5088915;28;20526;-82
2023/11/19 09:14:31;;;;;;;19.93;4.10;;;12.80;99.90;;;;;;5114252;28;20490;-80
2023/11/19 09:16:58;;;;;;;16.57;3.83;;;12.80;99.90;;;;;;5100013;28;20475;-80
2023/11/19 09:19:26;;;;;;;14.17;3.80;;;12.80;99.90;;;;;;5100626;28;20458;-79
2023/11/19 09:21:54;;;;;;;17.53;3.57;;;12.80;99.90;;;;;;5117030;28;20497;-80
2023/11/19 09:24:20;;;;;;;19.77;4.57;;;12.80;99.90;;;;;;5109386;28;20975;-80
2023/11/19 09:26:47;;;;;;;24.60;5.30;;;12.90;99.90;;;;;;5084190;28;20466;-79
2023/11/19 09:29:15;;;;;;;24.67;4.63;;;13.00;99.90;;;;;;5091683;28;20466;-81
2023/11/19 09:31:42;;;;;;;16.80;3.40;;;13.00;99.90;;;;;;5103405;28;20449;-80
2023/11/19 09:34:08;;;;;;;15.43;3.70;;;13.20;99.90;;;;;;5111480;28;20499;-81
2023/11/19 09:36:35;;;;;;;18.93;3.53;;;13.30;99.90;;;;;;5091316;28;21039;-82
2023/11/19 09:39:04;;;;;;;17.67;3.73;;;13.30;99.90;;;;;;5088091;28;20509;-81
2023/11/19 09:41:34;;;;;;;19.43;3.83;;;13.50;99.90;;;;;;5094403;28;20488;-81
2023/11/19 09:44:01;;;;;;;16.13;3.83;;;13.40;95.90;;;;;;5077307;28;20450;-80
2023/11/19 09:46:29;;;;;;;22.60;4.20;;;13.40;99.90;;;;;;5098177;28;20468;-81
2023/11/19 09:48:59;;;;;;;14.83;4.17;;;13.40;99.90;;;;;;5082953;28;20460;-80
2023/11/19 09:51:26;;;;;;;16.90;3.73;;;13.50;99.90;;;;;;5104514;28;20513;-79
2023/11/19 09:53:53;;;;;;;15.90;3.20;;;13.50;99.90;;;;;;5077193;28;20941;-80
2023/11/19 09:56:22;;;;;;;21.20;5.00;;;13.50;99.90;;;;;;5083972;28;20475;-81
2023/11/19 09:58:48;;;;;;;17.57;4.20;;;13.50;99.90;;;;;;5088410;28;20477;-80
2023/11/19 10:01:15;;;;;;;23.13;3.97;;;13.60;99.90;;;;;;5103609;28;20449;-80
2023/11/19 10:03:43;;;;;;;17.57;4.30;;;13.80;99.90;;;;;;5101819;28;20960;-81
2023/11/19 10:06:11;;;;;;;22.80;4.50;;;13.90;97.00;;;;;;5090853;28;20969;-81
2023/11/19 10:08:39;;;;;;;16.83;4.90;;;14.10;65.10;;;;;;5092448;28;20467;-79
2023/11/19 10:11:06;;;;;;;17.97;5.00;;;14.10;28.40;;;;;;5100057;28;20484;-82
2023/11/19 10:13:38;;;;;;;14.67;4.03;;;14.30;30.50;;;;;;5097040;28;20545;-82
2023/11/19 10:16:08;;;;;;;13.43;3.20;;;14.30;1.00;;;;;;5102106;28;20495;-81
2023/11/19 10:18:37;;;;;;;20.10;4.10;;;14.30;1.00;;;;;;5096315;28;20526;-79
2023/11/19 10:21:05;;;;;;;22.93;4.60;;;14.30;12.90;;;;;;5115893;28;20456;-79
2023/11/19 10:23:32;;;;;;;17.07;4.60;;;14.00;1.00;;;;;;5111029;28;20469;-80
2023/11/19 10:26:06;;;;;;;17.93;3.80;;;13.90;1.00;;;;;;5095057;28;20465;-81
2023/11/19 10:28:45;;;;;;;18.40;4.20;;;13.90;1.00;;;;;;5093302;28;21010;-81
2023/11/19 10:31:12;;;;;;;15.87;4.97;;;13.70;20.30;;;;;;5080369;28;20455;-79
2023/11/19 10:33:39;;;;;;;17.80;3.50;;;13.70;25.50;;;;;;5090010;28;20518;-81
2023/11/19 10:36:07;;;;;;;14.93;4.27;;;13.70;35.00;;;;;;5094044;28;20492;-81
2023/11/19 10:38:35;;;;;;;19.87;4.07;;;13.70;34.00;;;;;;5095509;28;20444;-79
2023/11/19 10:41:01;;;;;;;17.33;3.83;;;13.80;25.20;;;;;;5095549;28;20979;-81
2023/11/19 10:43:28;;;;;;;17.23;3.97;;;14.00;1.00;;;;;;5117088;28;20453;-79
2023/11/19 10:46:11;;;;;;;18.37;5.10;;;14.00;1.00;;;;;;5117657;28;20474;-80
2023/11/19 10:48:39;;;;;;;13.60;3.40;;;13.80;1.00;;;;;;5108165;28;20505;-79
2023/11/19 10:51:08;;;;;;;20.07;4.60;;;13.80;1.00;;;;;;5106286;28;20797;-83
2023/11/19 10:53:38;;;;;;;17.93;4.63;;;13.80;1.00;;;;;;5116920;28;20445;-80
2023/11/19 10:56:11;;;;;;;12.27;3.77;;;13.80;4.20;;;;;;5116519;28;20915;-82
2023/11/19 10:58:39;;;;;;;19.40;5.70;;;13.80;13.20;;;;;;5114298;28;20465;-79
2023/11/19 11:01:14;;;;;;;19.97;5.00;;;13.70;22.30;;;;;;5090311;28;20502;-81
2023/11/19 11:03:41;;;;;;;17.40;3.87;;;13.90;1.00;;;;;;5113958;28;20449;-82
2023/11/19 11:06:09;;;;;;;20.80;4.27;;;13.90;1.00;;;;;;5118306;28;20557;-79
2023/11/19 11:08:38;;;;;;;15.43;3.67;;;14.00;1.00;;;;;;5120361;28;20478;-78
2023/11/19 11:11:06;;;;;;;13.53;3.37;;;14.00;1.00;;;;;;5106151;28;20456;-80
2023/11/19 11:13:34;;;;;;;15.93;4.17;;;14.00;1.00;;;;;;5116246;28;20458;-78
2023/11/19 11:16:04;;;;;;;18.47;4.70;;;14.10;1.00;;;;;;5102597;28;20495;-81
2023/11/19 11:18:32;;;;;;;17.10;3.53;;;14.10;1.00;;;;;;5082006;28;20464;-82
2023/11/19 11:21:04;;;;;;;19.37;3.97;;;14.10;1.00;;;;;;5099228;28;20502;-82
2023/11/19 11:24:02;;;;;;;17.00;3.77;;;14.10;1.00;;;;;;5120528;28;20465;-80
2023/11/19 11:26:46;;;;;;;23.30;3.60;;;14.00;1.00;;;;;;5109239;28;20547;-81
2023/11/19 11:29:22;;;;;;;21.93;4.33;;;14.00;1.00;;;;;;5118822;28;20503;-79
2023/11/19 11:31:58;;;;;;;21.47;4.23;;;14.00;1.00;;;;;;5107925;28;20521;-79
2023/11/19 11:35:04;;;;;;;19.87;4.20;;;14.00;1.00;;;;;;5115451;28;20990;-80
2023/11/19 11:37:35;;;;;;;20.70;5.27;;;13.90;1.00;;;;;;5112072;28;20475;-83
2023/11/19 11:40:10;;;;;;;21.37;4.00;;;13.90;1.00;;;;;;5110822;28;20457;-79
2023/11/19 11:42:38;;;;;;;18.33;5.20;;;13.90;1.00;;;;;;5108998;28;20447;-80
2023/11/19 11:45:08;;;;;;;15.00;4.00;;;14.10;1.00;;;;;;5115184;28;20444;-82
2023/11/19 11:48:13;;;;;;;14.63;4.23;;;14.40;1.00;;;;;;5118810;28;20476;-81
2023/11/19 11:50:55;;;;;;;14.53;3.87;;;14.70;1.00;;;;;;5122727;28;20452;-81
2023/11/19 11:53:24;;;;;;;13.00;3.00;;;15.00;1.00;;;;;;5127877;28;20441;-81
2023/11/19 11:55:58;;;;;;;11.17;3.67;;;15.20;99.90;;;;;;5125125;28;20589;-78
2023/11/19 11:58:33;;;;;;;12.40;3.00;;;15.30;99.90;;;;;;5114377;28;20463;-79
2023/11/19 12:01:03;;;;;;;12.80;3.37;;;14.80;1.00;;;;;;5105854;28;20927;-82
2023/11/19 12:03:34;;;;;;;10.13;2.70;;;14.80;1.00;;;;;;5106350;28;20462;-82
2023/11/19 12:06:04;;;;;;;9.33;3.53;;;14.70;1.00;;;;;;5107245;28;20547;-79
2023/11/19 12:08:31;;;;;;;20.77;4.10;;;14.60;1.00;;;;;;5103574;28;20497;-81
2023/11/19 12:10:59;;;;;;;20.00;3.40;;;14.60;1.00;;;;;;5114893;28;20457;-81
2023/11/19 12:13:44;;;;;;;19.87;3.77;;;14.50;1.00;;;;;;5101890;28;20453;-79
2023/11/19 12:16:15;;;;;;;11.80;2.93;;;14.60;1.00;;;;;;5089712;28;21026;-78
2023/11/19 12:18:42;;;;;;;11.77;3.10;;;15.20;99.90;;;;;;5103541;28;20535;-79
2023/11/19 12:21:13;;;;;;;13.63;3.33;;;15.60;99.90;;;;;;5103750;28;20452;-81
2023/11/19 12:23:47;;;;;;;14.93;5.00;;;15.80;99.90;;;;;;5123913;28;21007;-80
2023/11/19 12:26:37;;;;;;;19.17;5.07;;;15.90;99.90;;;;;;5100917;28;20493;-80
2023/11/19 12:29:07;;;;;;;12.40;4.03;;;15.60;99.90;;;;;;5100990;28;20503;-78
2023/11/19 12:31:37;;;;;;;13.30;4.73;;;15.30;1.00;;;;;;5115318;28;20457;-79
2023/11/19 12:34:12;;;;;;;15.97;3.90;;;15.10;99.90;;;;;;5118818;28;20543;-80
2023/11/19 12:36:42;;;;;;;14.50;3.90;;;14.60;99.90;;;;;;5115838;28;20492;-81
2023/11/19 12:39:12;;;;;;;13.83;3.70;;;14.40;99.90;;;;;;5099504;28;20461;-82
2023/11/19 12:41:55;;;;;;;16.63;4.70;;;14.40;1.00;;;;;;5096941;28;20451;-81
2023/11/19 12:44:22;;;;;;;11.53;3.00;;;14.60;1.00;;;;;;5124244;28;20507;-81
2023/11/19 12:47:03;;;;;;;11.07;3.53;;;14.50;1.00;;;;;;5123150;28;20898;-79